Flag for Germany

Past Weather in Schönau am Königssee, Bavaria, Germany — Yesterday and Last 2 Weeks

Currently: 84 °F. Passing clouds. (Weather station: Salzburg-Flughafen, Germany). See more current weather

Past Weather in Schönau am Königssee — Graph

°F

Schönau am Königssee Temperature Yesterday

Maximum temperature yesterday: 84 °F (at 2:50 pm)
Minimum temperature yesterday: 68 °F (at 12:50 am)
Average temperature yesterday: 77 °F

High & Low Weather Summary for the Past Weeks

 TemperatureHumidityPressure
High90 °F (Jun 18, 4:50 pm)100% (Jun 6, 8:50 pm)30.27 "Hg (Jun 6, 8:50 pm)
Low46 °F (Jun 14, 4:50 am)28% (Jun 15, 4:50 pm)29.71 "Hg (Jun 20, 10:50 pm)
Average70 °F64%30.07 "Hg
* Reported Jun 6 3:20 pm — Jun 21 3:20 pm, Schönau am Königssee. Weather by CustomWeather, © 2021

Note: Actual official high and low records may vary slightly from our data, if they occured in-between our weather recording intervals... More about our weather records

Schönau am Königssee Weather History for the Previous 24 Hours

Scroll right to see more
 ConditionsComfort  
Time TempWeatherWind HumidityBarometerVisibility
3:20 pm
Mon, Jun 21
82 °FPassing clouds.8 mph45%29.77 "HgN/A
2:50 pm82 °FPassing clouds.8 mph45%29.77 "HgN/A
2:20 pm82 °FPassing clouds.9 mph45%29.80 "HgN/A
1:50 pm81 °FPassing clouds.7 mph48%29.80 "HgN/A
1:20 pm82 °FPassing clouds.8 mph45%29.80 "HgN/A
12:50 pm81 °FPassing clouds.6 mph45%29.80 "HgN/A
12:20 pm79 °FPassing clouds.8 mph48%29.80 "HgN/A
11:50 am79 °FPassing clouds.8 mph48%29.83 "HgN/A
11:20 am79 °FPassing clouds.7 mph48%29.83 "HgN/A
10:50 am77 °FPassing clouds.6 mph54%29.83 "HgN/A
10:20 am77 °FPassing clouds.5 mph61%29.83 "HgN/A
9:50 am75 °FPassing clouds.6 mph65%29.83 "HgN/A
8:50 am73 °FPartly sunny.7 mph74%29.86 "HgN/A
8:20 am72 °FPartly sunny.6 mph78%29.86 "HgN/A
7:50 am72 °FPartly sunny.3 mph78%29.83 "HgN/A
7:20 am70 °FPartly sunny.7 mph83%29.83 "HgN/A
6:50 am68 °FPassing clouds.2 mph88%29.83 "HgN/A
6:20 am68 °FPassing clouds.2 mph83%29.83 "HgN/A
5:50 am66 °FSunny.3 mph88%29.80 "Hg10 mi
5:20 am66 °FClear.6 mph88%29.80 "HgN/A
4:50 am70 °FClear.6 mph78%29.80 "HgN/A
4:20 am70 °FPassing clouds.5 mph78%29.80 "HgN/A
3:50 am72 °FMild.9 mph73%29.80 "HgN/A
3:20 am72 °FMild.9 mph78%29.80 "HgN/A
2:50 am72 °FMild.15 mph78%29.77 "HgN/A
2:20 am70 °FClear.6 mph83%29.77 "HgN/A
1:50 am73 °FClear.7 mph74%29.74 "HgN/A
1:20 am75 °FClear.7 mph65%29.74 "HgN/A
12:50 am70 °FClear.13 mph83%29.74 "HgN/A
12:20 am72 °FClear.8 mph78%29.71 "HgN/A
11:50 pm
Sun, Jun 20
72 °FClear.5 mph78%29.71 "HgN/A
11:20 pm73 °FClear.6 mph78%29.71 "HgN/A
10:50 pm75 °FClear.9 mph74%29.71 "HgN/A
10:20 pm75 °FClear.7 mph74%29.74 "HgN/A
9:50 pm75 °FPassing clouds.5 mph74%29.74 "HgN/A
9:20 pm77 °FClear.2 mph69%29.74 "Hg10 mi
8:50 pm77 °FPassing clouds.5 mph74%29.74 "HgN/A
8:20 pm81 °FPassing clouds.2 mph62%29.77 "HgN/A
7:50 pm81 °FPassing clouds.5 mph62%29.77 "HgN/A
7:20 pm81 °FPassing clouds.3 mph58%29.77 "HgN/A
6:50 pm82 °FPassing clouds.3 mph55%29.80 "HgN/A
6:20 pm82 °FPassing clouds.1 mph58%29.80 "HgN/A
5:50 pm82 °FSunny.2 mph58%29.80 "Hg10 mi
5:20 pm82 °FSunny.1 mph55%29.83 "Hg10 mi
4:50 pm82 °FSunny.2 mph55%29.83 "Hg10 mi
4:20 pm82 °FPassing clouds.5 mph51%29.83 "HgN/A
Weather by CustomWeather, © 2021

See weather overview